• Join FlightAware (Why Join?)
  • Login
  • US Flag 
03:38PM EDT


 

Airport Tracker/Info


-or-


 

Live Flight TrackerFlight Track Log ✈ FIN666 ✈ 11-Mar-2014 ✈ EKCH / CPH - EFHK / HEL

Flight Track Log - Related Links

Times and Time Zones

All times are in EDT time to prevent confusion due to time zone crossing. See the FIN666 flight status page for this flight to view local times or setup timezone preferences in your user account.

Time Position Orientation Groundspeed Altitude Reporting Facility
EDT Latitude Longitude Course Direction KTS MPH feet Rate Location/Type
08:22AM 55.8217 13.0768 49° Northeast  Level Estimated
08:23AM 55.8894 13.2181 49° Northeast  Level Estimated
08:24AM 55.9568 13.3599 50° Northeast  Level Estimated
08:25AM 56.0241 13.5021 50° Northeast  Level Estimated
08:26AM 56.0969 13.6569 50° Northeast  Level Estimated
08:27AM 56.1695 13.8124 50° Northeast  Level Estimated
08:28AM 56.2419 13.9684 50° Northeast  Level Estimated
08:29AM 56.3141 14.1250 50° Northeast  Level Estimated
08:30AM 56.3861 14.2822 50° Northeast  Level Estimated
08:31AM 56.4579 14.4399 50° Northeast  Level Estimated
08:32AM 56.5295 14.5983 51° Northeast  Level Estimated
08:33AM 56.6010 14.7573 51° Northeast  Level Estimated
08:34AM 56.6722 14.9169 51° Northeast  Level Estimated
08:35AM 56.7432 15.0771 51° Northeast  Level Estimated
08:36AM 56.8139 15.2379 51° Northeast  Level Estimated
08:37AM 56.8845 15.3993 51° Northeast  Level Estimated
08:38AM 56.9549 15.5613 51° Northeast  Level Estimated
08:39AM 57.0251 15.7239 52° Northeast  Level Estimated
08:40AM 57.0950 15.8871 52° Northeast  Level Estimated
08:41AM 57.1648 16.0510 52° Northeast  Level Estimated
08:42AM 57.2363 16.2202 52° Northeast  Level Estimated
08:43AM 57.3076 16.3902 52° Northeast  Level Estimated
08:44AM 57.3787 16.5607 52° Northeast  Level Estimated
08:45AM 57.4496 16.7319 52° Northeast  Level Estimated
08:46AM 57.5202 16.9038 53° Northeast  Level Estimated
08:47AM 57.5906 17.0764 53° Northeast  Level Estimated
08:48AM 57.6607 17.2496 53° Northeast  Level Estimated
08:49AM 57.7306 17.4235 53° Northeast  Level Estimated
08:50AM 57.8003 17.5981 53° Northeast  Level Estimated
08:51AM 57.8697 17.7733 53° Northeast  Level Estimated
08:52AM 57.9389 17.9492 53° Northeast  Level Estimated
08:53AM 58.0078 18.1258 54° Northeast  Level Estimated
08:54AM 58.0765 18.3031 54° Northeast  Level Estimated
08:55AM 58.1450 18.4810 54° Northeast  Level Estimated
08:56AM 58.2132 18.6597 54° Northeast  Level Estimated
08:57AM 58.2811 18.8390 54° Northeast  Level Estimated
08:58AM 58.3488 19.0190 54° Northeast  Level Estimated
08:59AM 58.4163 19.1997 54° Northeast  Level Estimated
09:00AM 58.4835 19.3811 55° Northeast  Level Estimated
09:01AM 58.5504 19.5632 55° Northeast  Level Estimated
09:02AM 58.6171 19.7460 55° Northeast  Level Estimated
09:03AM 58.6835 19.9295 55° Northeast  Level Estimated
09:04AM 58.7496 20.1137 55° Northeast  Level Estimated
09:05AM 58.8155 20.2986 55° Northeast  Level Estimated
09:06AM 58.8811 20.4841 56° Northeast  Level Estimated
09:07AM 58.9465 20.6704 56° Northeast  Level Estimated
09:08AM 59.0116 20.8574 56° Northeast  Level Estimated
09:09AM 59.0764 21.0451 56° Northeast  Level Estimated
09:10AM 59.1410 21.2335 56° Northeast  Level Estimated
09:11AM 59.2052 21.4227 56° Northeast  Level Estimated
09:12AM 59.2692 21.6125 57° Northeast  Level Estimated
09:13AM 59.3330 21.8031 57° Northeast  Level Estimated
09:14AM 59.3929 21.9838 57° Northeast  Level Estimated
09:15AM 59.4526 22.1652 57° Northeast  Level Estimated
09:16AM 59.5113 22.3448 57° Northeast  Level Estimated
09:17AM 59.5697 22.5250 57° Northeast  Level Estimated
09:18AM 59.6279 22.7058 57° Northeast  Level Estimated
09:19AM 59.6858 22.8873 58° Northeast  Level Estimated
09:20AM 59.7435 23.0694 58° Northeast  Level Estimated
09:21AM 59.8009 23.2521 58° Northeast  Level Estimated
09:22AM 59.8581 23.4354 58° Northeast  Level Estimated
09:23AM 59.9150 23.6194 58° Northeast  Level Estimated
09:24AM 59.9716 23.8040 58° Northeast  Level Estimated
09:25AM 60.0280 23.9892 59° Northeast  Level Estimated
09:26AM 60.0841 24.1751 59° Northeast  Level Estimated
09:27AM 60.1400 24.3616 59° Northeast  Level Estimated
09:28AM 60.1956 24.5487 59° Northeast  Level Estimated
09:29AM 60.2510 24.7365 59° Northeast  Level Estimated
09:30AM 60.3060 24.9249 59° Northeast  Level Estimated
09:31AM 60.3172 24.9633 60° Northeast  Level Estimated
09:32AM 60.3172 24.9633 North  Level Estimated
09:33AM 60.3172 24.9633 North  Level Estimated
09:34AM 60.3172 24.9633 North  Level Estimated
09:35AM 60.3172 24.9633 North  Level Estimated
09:36AM 60.3172 24.9633 North  Level Estimated
09:37AM 60.3172 24.9633 North  Level Estimated
09:38AM 60.3172 24.9633 North  Level Estimated
09:39AM 60.3172 24.9633 North  Level Estimated
09:40AM 60.3172 24.9633 North  Level Estimated
09:41AM 60.3172 24.9633 North  Level Estimated
09:42AM 60.3172 24.9633 North  Level Estimated
09:43AM 60.3172 24.9633 North  Level Estimated